LHA210 LSZH-EDDH
Flight info
| Callsign | LHA210 |
|---|---|
| Flight time | 1h 18m |
| Altitude | 36000 |
| Route | DEGES Z1 ETAGO DCT HAREM DCT LOHRE DCT ELNAT P605 NOLGO |
| Aircraft | A320/M-SDE1E2FGIRWYZ/LB1 |
Departure
| Time | 2026-02-17 11:36 |
|---|---|
| Airport | Zürich Airport (LSZH) |
Arrival
| Time | 2026-02-17 12:55 |
|---|---|
| Airport | Hamburg Helmut Schmidt Airport (EDDH) |
| Time | Latitude | Longitude | Altitude | Speed | Heading |
|---|---|---|---|---|---|
| 2026-02-17 11:00 | 47.45419 | 8.55804 | 1397 ft | 0 kts | 186° |
| 2026-02-17 11:28 | 47.45425 | 8.55805 | 1397 ft | 2 kts | 186° |
| 2026-02-17 11:28 | 47.45444 | 8.55808 | 1405 ft | 3 kts | 186° |
| 2026-02-17 11:28 | 47.45464 | 8.55811 | 1404 ft | 3 kts | 181° |
| 2026-02-17 11:28 | 47.45484 | 8.55809 | 1399 ft | 3 kts | 162° |
| 2026-02-17 11:29 | 47.45501 | 8.55797 | 1406 ft | 3 kts | 125° |
| 2026-02-17 11:29 | 47.45506 | 8.55780 | 1402 ft | 1 kts | 96° |
| 2026-02-17 11:29 | 47.45508 | 8.55759 | 1403 ft | 2 kts | 96° |
| 2026-02-17 11:29 | 47.45508 | 8.55754 | 1403 ft | 0 kts | 96° |
| 2026-02-17 11:32 | 47.45507 | 8.55764 | 1403 ft | 6 kts | 96° |
| 2026-02-17 11:32 | 47.45532 | 8.55839 | 1408 ft | 10 kts | 24° |
| 2026-02-17 11:33 | 47.45602 | 8.55850 | 1397 ft | 9 kts | 12° |
| 2026-02-17 11:33 | 47.45633 | 8.55922 | 1402 ft | 13 kts | 90° |
| 2026-02-17 11:33 | 47.45622 | 8.56107 | 1398 ft | 23 kts | 96° |
| 2026-02-17 11:33 | 47.45606 | 8.56334 | 1403 ft | 21 kts | 95° |
| 2026-02-17 11:34 | 47.45591 | 8.56535 | 1403 ft | 18 kts | 95° |
| 2026-02-17 11:34 | 47.45578 | 8.56712 | 1406 ft | 16 kts | 97° |
| 2026-02-17 11:34 | 47.45567 | 8.56867 | 1399 ft | 14 kts | 95° |
| 2026-02-17 11:35 | 47.45633 | 8.57024 | 1406 ft | 10 kts | 3° |
| 2026-02-17 11:35 | 47.45667 | 8.56962 | 1408 ft | 9 kts | 272° |
| 2026-02-17 11:35 | 47.45667 | 8.56933 | 1406 ft | 0 kts | 272° |
| 2026-02-17 11:35 | 47.45674 | 8.56815 | 1409 ft | 44 kts | 275° |
| 2026-02-17 11:36 | 47.45732 | 8.56015 | 1406 ft | 110 kts | 276° |
| 2026-02-17 11:36 | 47.45826 | 8.54655 | 1573 ft | 144 kts | 276° |
| 2026-02-17 11:36 | 47.45933 | 8.53183 | 2304 ft | 144 kts | 274° |
| 2026-02-17 11:36 | 47.46038 | 8.51711 | 3057 ft | 148 kts | 273° |
| 2026-02-17 11:37 | 47.46152 | 8.50091 | 3330 ft | 169 kts | 274° |
| 2026-02-17 11:37 | 47.46211 | 8.48247 | 3581 ft | 191 kts | 259° |
| 2026-02-17 11:37 | 47.45507 | 8.46548 | 4234 ft | 201 kts | 230° |
| 2026-02-17 11:37 | 47.44490 | 8.45121 | 5090 ft | 201 kts | 231° |
| 2026-02-17 11:38 | 47.43728 | 8.43440 | 5837 ft | 196 kts | 255° |
| 2026-02-17 11:38 | 47.43337 | 8.41506 | 6590 ft | 197 kts | 258° |
| 2026-02-17 11:38 | 47.42967 | 8.39550 | 7342 ft | 199 kts | 258° |
| 2026-02-17 11:39 | 47.41060 | 8.36661 | 8784 ft | 233 kts | 193° |
| 2026-02-17 11:39 | 47.39421 | 8.37175 | 9501 ft | 257 kts | 154° |
| 2026-02-17 11:39 | 47.38184 | 8.39148 | 10099 ft | 273 kts | 115° |
| 2026-02-17 11:39 | 47.37888 | 8.41907 | 10708 ft | 276 kts | 76° |
| 2026-02-17 11:40 | 47.38656 | 8.44399 | 11348 ft | 265 kts | 41° |
| 2026-02-17 11:40 | 47.40008 | 8.46262 | 12060 ft | 262 kts | 31° |
| 2026-02-17 11:40 | 47.41418 | 8.47968 | 12540 ft | 275 kts | 31° |
| 2026-02-17 11:40 | 47.42973 | 8.49808 | 12779 ft | 298 kts | 31° |
| 2026-02-17 11:41 | 47.44602 | 8.51984 | 12949 ft | 328 kts | 45° |
| 2026-02-17 11:41 | 47.45685 | 8.55115 | 13104 ft | 361 kts | 72° |
| 2026-02-17 11:41 | 47.45975 | 8.58928 | 13279 ft | 385 kts | 89° |
| 2026-02-17 11:41 | 47.45977 | 8.62933 | 13781 ft | 394 kts | 87° |
| 2026-02-17 11:42 | 47.46063 | 8.67002 | 14372 ft | 398 kts | 85° |
| 2026-02-17 11:42 | 47.46210 | 8.71096 | 14990 ft | 401 kts | 84° |
| 2026-02-17 11:42 | 47.46390 | 8.75225 | 15577 ft | 404 kts | 83° |
| 2026-02-17 11:43 | 47.46467 | 8.83620 | 16748 ft | 416 kts | 95° |
| 2026-02-17 11:43 | 47.45918 | 8.87843 | 17333 ft | 421 kts | 101° |
| 2026-02-17 11:43 | 47.45290 | 8.92086 | 17908 ft | 425 kts | 101° |
| 2026-02-17 11:43 | 47.44665 | 8.96373 | 18423 ft | 429 kts | 100° |
| 2026-02-17 11:44 | 47.44044 | 9.00700 | 18898 ft | 432 kts | 99° |
| 2026-02-17 11:44 | 47.43422 | 9.05068 | 19377 ft | 436 kts | 99° |
| 2026-02-17 11:44 | 47.42795 | 9.09472 | 19848 ft | 440 kts | 99° |
| 2026-02-17 11:44 | 47.42375 | 9.13943 | 20315 ft | 440 kts | 89° |
| 2026-02-17 11:45 | 47.42448 | 9.18444 | 20791 ft | 438 kts | 78° |
| 2026-02-17 11:45 | 47.43002 | 9.22837 | 21246 ft | 434 kts | 68° |
| 2026-02-17 11:45 | 47.44004 | 9.27016 | 21707 ft | 429 kts | 58° |
| 2026-02-17 11:45 | 47.45388 | 9.30885 | 22182 ft | 426 kts | 52° |
| 2026-02-17 11:46 | 47.46996 | 9.34537 | 22661 ft | 420 kts | 43° |
| 2026-02-17 11:46 | 47.48938 | 9.37698 | 23122 ft | 412 kts | 33° |
| 2026-02-17 11:46 | 47.51158 | 9.40309 | 23571 ft | 404 kts | 24° |
| 2026-02-17 11:47 | 47.56118 | 9.43817 | 24356 ft | 389 kts | 9° |
| 2026-02-17 11:47 | 47.58706 | 9.44860 | 24726 ft | 382 kts | 1° |
| 2026-02-17 11:47 | 47.61317 | 9.45277 | 25131 ft | 374 kts | 354° |
| 2026-02-17 11:47 | 47.63919 | 9.45406 | 25533 ft | 375 kts | 354° |
| 2026-02-17 11:48 | 47.66527 | 9.45538 | 25944 ft | 375 kts | 354° |
| 2026-02-17 11:48 | 47.69172 | 9.45676 | 26356 ft | 375 kts | 354° |
| 2026-02-17 11:48 | 47.71780 | 9.45814 | 26753 ft | 376 kts | 354° |
| 2026-02-17 11:48 | 47.74399 | 9.45956 | 27133 ft | 377 kts | 354° |
| 2026-02-17 11:49 | 47.77022 | 9.46099 | 27499 ft | 377 kts | 354° |
| 2026-02-17 11:49 | 47.79654 | 9.46242 | 27843 ft | 379 kts | 354° |
| 2026-02-17 11:49 | 47.82289 | 9.46340 | 28184 ft | 379 kts | 352° |
| 2026-02-17 11:49 | 47.84925 | 9.46358 | 28518 ft | 379 kts | 352° |
| 2026-02-17 11:50 | 47.87564 | 9.46331 | 28853 ft | 380 kts | 351° |
| 2026-02-17 11:50 | 47.90212 | 9.46291 | 29176 ft | 381 kts | 351° |
| 2026-02-17 11:50 | 47.92864 | 9.46253 | 29491 ft | 382 kts | 351° |
| 2026-02-17 11:51 | 47.98164 | 9.46213 | 30317 ft | 379 kts | 352° |
| 2026-02-17 11:51 | 48.00793 | 9.46212 | 30666 ft | 378 kts | 352° |
| 2026-02-17 11:51 | 48.03416 | 9.46211 | 30993 ft | 377 kts | 352° |
| 2026-02-17 11:51 | 48.06036 | 9.46207 | 31312 ft | 376 kts | 352° |
| 2026-02-17 11:52 | 48.08653 | 9.46207 | 31646 ft | 376 kts | 352° |
| 2026-02-17 11:52 | 48.11263 | 9.46205 | 31995 ft | 375 kts | 352° |
| 2026-02-17 11:52 | 48.13863 | 9.46196 | 32330 ft | 374 kts | 352° |
| 2026-02-17 11:52 | 48.16462 | 9.46184 | 32644 ft | 373 kts | 352° |
| 2026-02-17 11:53 | 48.19058 | 9.46176 | 32973 ft | 372 kts | 352° |
| 2026-02-17 11:53 | 48.21648 | 9.46177 | 33296 ft | 372 kts | 352° |
| 2026-02-17 11:53 | 48.24264 | 9.46181 | 33634 ft | 371 kts | 352° |
| 2026-02-17 11:53 | 48.26812 | 9.46189 | 33928 ft | 371 kts | 352° |
| 2026-02-17 11:54 | 48.29424 | 9.46198 | 34190 ft | 371 kts | 352° |
| 2026-02-17 11:54 | 48.32006 | 9.46204 | 34411 ft | 372 kts | 352° |
| 2026-02-17 11:54 | 48.34598 | 9.46204 | 34615 ft | 373 kts | 352° |
| 2026-02-17 11:55 | 48.39805 | 9.46196 | 34995 ft | 375 kts | 352° |
| 2026-02-17 11:55 | 48.42423 | 9.46195 | 35184 ft | 376 kts | 352° |
| 2026-02-17 11:55 | 48.45040 | 9.46199 | 35369 ft | 378 kts | 352° |
| 2026-02-17 11:55 | 48.47677 | 9.46206 | 35543 ft | 379 kts | 352° |
| 2026-02-17 11:56 | 48.49419 | 9.46211 | 35666 ft | 379 kts | 352° |
| 2026-02-17 11:56 | 48.52061 | 9.46214 | 35828 ft | 380 kts | 352° |
| 2026-02-17 11:56 | 48.57381 | 9.46180 | 35861 ft | 383 kts | 352° |
| 2026-02-17 11:57 | 48.62698 | 9.46106 | 35840 ft | 382 kts | 352° |
| 2026-02-17 11:57 | 48.68027 | 9.46038 | 35848 ft | 383 kts | 352° |
| 2026-02-17 11:58 | 48.73355 | 9.45979 | 35842 ft | 382 kts | 352° |
| 2026-02-17 11:59 | 48.81355 | 9.45610 | 35849 ft | 382 kts | 351° |
| 2026-02-17 11:59 | 48.86666 | 9.45295 | 35860 ft | 382 kts | 351° |
| 2026-02-17 12:00 | 48.91982 | 9.45006 | 35846 ft | 383 kts | 351° |
| 2026-02-17 12:00 | 48.97305 | 9.44737 | 35840 ft | 383 kts | 351° |
| 2026-02-17 12:01 | 49.02626 | 9.44475 | 35834 ft | 383 kts | 351° |
| 2026-02-17 12:01 | 49.07955 | 9.44205 | 35839 ft | 383 kts | 351° |
| 2026-02-17 12:02 | 49.13285 | 9.43942 | 35835 ft | 383 kts | 351° |
| 2026-02-17 12:02 | 49.18621 | 9.43673 | 35837 ft | 383 kts | 351° |
| 2026-02-17 12:03 | 49.26618 | 9.43253 | 35839 ft | 383 kts | 351° |
| 2026-02-17 12:03 | 49.31990 | 9.42970 | 35836 ft | 384 kts | 351° |
| 2026-02-17 12:04 | 49.37333 | 9.42699 | 35836 ft | 384 kts | 351° |
| 2026-02-17 12:04 | 49.42666 | 9.42431 | 35833 ft | 384 kts | 351° |
| 2026-02-17 12:05 | 49.48014 | 9.42161 | 35828 ft | 385 kts | 351° |
| 2026-02-17 12:05 | 49.53364 | 9.41876 | 35820 ft | 385 kts | 351° |
| 2026-02-17 12:06 | 49.58733 | 9.41590 | 35819 ft | 386 kts | 351° |
| 2026-02-17 12:07 | 49.66857 | 9.42229 | 35816 ft | 394 kts | 358° |
| 2026-02-17 12:07 | 49.72315 | 9.43103 | 35811 ft | 394 kts | 358° |
| 2026-02-17 12:08 | 49.77778 | 9.43975 | 35806 ft | 395 kts | 358° |
| 2026-02-17 12:08 | 49.83259 | 9.44864 | 35805 ft | 396 kts | 358° |
| 2026-02-17 12:09 | 49.88741 | 9.45753 | 35803 ft | 397 kts | 358° |
| 2026-02-17 12:09 | 49.94236 | 9.46649 | 35801 ft | 397 kts | 358° |
| 2026-02-17 12:10 | 49.99738 | 9.47539 | 35799 ft | 398 kts | 358° |
| 2026-02-17 12:10 | 50.05254 | 9.48423 | 35794 ft | 399 kts | 358° |
| 2026-02-17 12:11 | 50.13585 | 9.49825 | 35798 ft | 401 kts | 359° |
| 2026-02-17 12:11 | 50.19128 | 9.50803 | 35796 ft | 401 kts | 359° |
| 2026-02-17 12:12 | 50.24682 | 9.51789 | 35792 ft | 402 kts | 359° |
| 2026-02-17 12:12 | 50.30251 | 9.52776 | 35790 ft | 403 kts | 359° |
| 2026-02-17 12:13 | 50.35828 | 9.53770 | 35789 ft | 403 kts | 359° |
| 2026-02-17 12:13 | 50.41407 | 9.54766 | 35787 ft | 404 kts | 359° |
| 2026-02-17 12:14 | 50.47005 | 9.55762 | 35786 ft | 405 kts | 359° |
| 2026-02-17 12:15 | 50.55424 | 9.57272 | 35786 ft | 406 kts | 359° |
| 2026-02-17 12:15 | 50.61044 | 9.58268 | 35784 ft | 407 kts | 359° |
| 2026-02-17 12:16 | 50.66685 | 9.59292 | 35785 ft | 408 kts | 360° |
| 2026-02-17 12:16 | 50.72335 | 9.60356 | 35787 ft | 410 kts | 0° |
| 2026-02-17 12:17 | 50.78000 | 9.61433 | 35785 ft | 410 kts | 0° |
| 2026-02-17 12:17 | 50.83707 | 9.62522 | 35786 ft | 410 kts | 0° |
| 2026-02-17 12:18 | 50.89383 | 9.63591 | 35787 ft | 411 kts | 0° |
| 2026-02-17 12:18 | 50.95060 | 9.64656 | 35785 ft | 411 kts | 0° |
| 2026-02-17 12:19 | 51.03585 | 9.66284 | 35782 ft | 411 kts | 0° |
| 2026-02-17 12:19 | 51.09271 | 9.67378 | 35777 ft | 412 kts | 0° |
| 2026-02-17 12:20 | 51.14966 | 9.68469 | 35778 ft | 412 kts | 0° |
| 2026-02-17 12:20 | 51.20661 | 9.69557 | 35769 ft | 413 kts | 0° |
| 2026-02-17 12:21 | 51.26348 | 9.70072 | 35760 ft | 408 kts | 354° |
| 2026-02-17 12:21 | 51.32030 | 9.70041 | 35761 ft | 408 kts | 354° |
| 2026-02-17 12:22 | 51.37710 | 9.69968 | 35753 ft | 409 kts | 354° |
| 2026-02-17 12:23 | 51.46295 | 9.69890 | 35757 ft | 410 kts | 354° |
| 2026-02-17 12:23 | 51.51964 | 9.69859 | 35756 ft | 410 kts | 354° |
| 2026-02-17 12:24 | 51.57708 | 9.69820 | 35755 ft | 410 kts | 354° |
| 2026-02-17 12:24 | 51.63424 | 9.69780 | 35756 ft | 411 kts | 354° |
| 2026-02-17 12:25 | 51.69148 | 9.69732 | 35753 ft | 411 kts | 354° |
| 2026-02-17 12:25 | 51.74872 | 9.69695 | 35753 ft | 412 kts | 354° |
| 2026-02-17 12:26 | 51.80603 | 9.69661 | 35690 ft | 412 kts | 354° |
| 2026-02-17 12:26 | 51.83464 | 9.69647 | 35092 ft | 411 kts | 354° |
| 2026-02-17 12:26 | 51.86329 | 9.69629 | 34394 ft | 412 kts | 354° |
| 2026-02-17 12:27 | 51.92068 | 9.69582 | 32937 ft | 413 kts | 354° |
| 2026-02-17 12:27 | 51.94944 | 9.69559 | 32136 ft | 414 kts | 354° |
| 2026-02-17 12:27 | 51.97828 | 9.69535 | 31322 ft | 415 kts | 354° |
| 2026-02-17 12:27 | 52.00717 | 9.69509 | 30515 ft | 416 kts | 354° |
| 2026-02-17 12:28 | 52.03615 | 9.69487 | 29691 ft | 417 kts | 354° |
| 2026-02-17 12:28 | 52.05546 | 9.69473 | 29064 ft | 418 kts | 354° |
| 2026-02-17 12:28 | 52.08471 | 9.69457 | 28315 ft | 414 kts | 355° |
| 2026-02-17 12:28 | 52.11338 | 9.69443 | 27551 ft | 411 kts | 355° |
| 2026-02-17 12:29 | 52.14198 | 9.69427 | 26826 ft | 409 kts | 355° |
| 2026-02-17 12:29 | 52.17027 | 9.69410 | 26134 ft | 406 kts | 355° |
| 2026-02-17 12:29 | 52.19847 | 9.69389 | 25450 ft | 404 kts | 355° |
| 2026-02-17 12:29 | 52.22660 | 9.69366 | 24783 ft | 403 kts | 355° |
| 2026-02-17 12:30 | 52.25456 | 9.69339 | 24114 ft | 401 kts | 356° |
| 2026-02-17 12:30 | 52.28239 | 9.69312 | 23477 ft | 400 kts | 356° |
| 2026-02-17 12:30 | 52.31018 | 9.69286 | 22764 ft | 399 kts | 356° |
| 2026-02-17 12:31 | 52.36532 | 9.69252 | 21478 ft | 393 kts | 356° |
| 2026-02-17 12:31 | 52.39257 | 9.69243 | 20865 ft | 391 kts | 356° |
| 2026-02-17 12:31 | 52.41964 | 9.69232 | 20270 ft | 388 kts | 356° |
| 2026-02-17 12:31 | 52.44657 | 9.69213 | 19688 ft | 385 kts | 356° |
| 2026-02-17 12:32 | 52.47325 | 9.69189 | 19127 ft | 383 kts | 356° |
| 2026-02-17 12:32 | 52.49984 | 9.69165 | 18597 ft | 381 kts | 356° |
| 2026-02-17 12:32 | 52.52633 | 9.69139 | 18107 ft | 379 kts | 356° |
| 2026-02-17 12:32 | 52.55260 | 9.69114 | 17576 ft | 377 kts | 356° |
| 2026-02-17 12:33 | 52.57876 | 9.69094 | 17066 ft | 374 kts | 357° |
| 2026-02-17 12:33 | 52.60468 | 9.69080 | 16547 ft | 371 kts | 357° |
| 2026-02-17 12:33 | 52.63035 | 9.69068 | 16042 ft | 368 kts | 357° |
| 2026-02-17 12:33 | 52.65585 | 9.69053 | 15566 ft | 365 kts | 356° |
| 2026-02-17 12:34 | 52.68118 | 9.69035 | 15090 ft | 363 kts | 356° |
| 2026-02-17 12:34 | 52.70636 | 9.69015 | 14567 ft | 360 kts | 356° |
| 2026-02-17 12:34 | 52.73126 | 9.68994 | 14102 ft | 357 kts | 356° |
| 2026-02-17 12:35 | 52.78066 | 9.68958 | 13116 ft | 352 kts | 356° |
| 2026-02-17 12:35 | 52.80510 | 9.68941 | 12588 ft | 349 kts | 356° |
| 2026-02-17 12:35 | 52.82958 | 9.68923 | 12062 ft | 346 kts | 356° |
| 2026-02-17 12:35 | 52.85360 | 9.68905 | 11538 ft | 343 kts | 356° |
| 2026-02-17 12:36 | 52.87737 | 9.68886 | 11021 ft | 340 kts | 356° |
| 2026-02-17 12:36 | 52.90086 | 9.68868 | 10518 ft | 337 kts | 356° |
| 2026-02-17 12:36 | 52.92425 | 9.68851 | 10033 ft | 334 kts | 356° |
| 2026-02-17 12:36 | 52.94700 | 9.68838 | 9878 ft | 316 kts | 356° |
| 2026-02-17 12:37 | 52.96812 | 9.68829 | 9742 ft | 292 kts | 356° |
| 2026-02-17 12:37 | 52.98790 | 9.68819 | 9719 ft | 281 kts | 356° |
| 2026-02-17 12:37 | 53.00736 | 9.68806 | 9724 ft | 280 kts | 356° |
| 2026-02-17 12:37 | 53.02685 | 9.68788 | 9722 ft | 279 kts | 356° |
| 2026-02-17 12:38 | 53.04622 | 9.68769 | 9722 ft | 279 kts | 356° |
| 2026-02-17 12:38 | 53.06556 | 9.68750 | 9722 ft | 279 kts | 356° |
| 2026-02-17 12:38 | 53.08499 | 9.68733 | 9720 ft | 278 kts | 356° |
| 2026-02-17 12:39 | 53.12372 | 9.68700 | 9718 ft | 278 kts | 356° |
| 2026-02-17 12:39 | 53.14307 | 9.68687 | 9618 ft | 277 kts | 356° |
| 2026-02-17 12:39 | 53.16225 | 9.68673 | 9241 ft | 275 kts | 356° |
| 2026-02-17 12:39 | 53.18135 | 9.68658 | 8851 ft | 274 kts | 356° |
| 2026-02-17 12:40 | 53.20035 | 9.68645 | 8472 ft | 272 kts | 356° |
| 2026-02-17 12:40 | 53.21922 | 9.68634 | 8102 ft | 270 kts | 356° |
| 2026-02-17 12:40 | 53.23824 | 9.68622 | 7758 ft | 268 kts | 356° |
| 2026-02-17 12:40 | 53.25687 | 9.68610 | 7716 ft | 269 kts | 356° |
| 2026-02-17 12:41 | 53.27560 | 9.68594 | 7723 ft | 270 kts | 356° |
| 2026-02-17 12:41 | 53.29434 | 9.68576 | 7724 ft | 270 kts | 356° |
| 2026-02-17 12:41 | 53.31317 | 9.68561 | 7724 ft | 270 kts | 356° |
| 2026-02-17 12:41 | 53.33195 | 9.68548 | 7726 ft | 270 kts | 356° |
| 2026-02-17 12:42 | 53.35078 | 9.68532 | 7724 ft | 270 kts | 356° |
| 2026-02-17 12:42 | 53.36958 | 9.68516 | 7725 ft | 270 kts | 356° |
| 2026-02-17 12:42 | 53.38832 | 9.68499 | 7724 ft | 270 kts | 356° |
| 2026-02-17 12:43 | 53.42570 | 9.68471 | 7175 ft | 267 kts | 356° |
| 2026-02-17 12:43 | 53.44427 | 9.68461 | 6802 ft | 266 kts | 356° |
| 2026-02-17 12:43 | 53.46272 | 9.68450 | 6440 ft | 264 kts | 356° |
| 2026-02-17 12:43 | 53.48106 | 9.68439 | 6063 ft | 263 kts | 356° |
| 2026-02-17 12:44 | 53.49934 | 9.68424 | 5679 ft | 262 kts | 356° |
| 2026-02-17 12:44 | 53.51747 | 9.68407 | 5297 ft | 260 kts | 356° |
| 2026-02-17 12:44 | 53.53550 | 9.68386 | 4911 ft | 259 kts | 356° |
| 2026-02-17 12:44 | 53.55342 | 9.68362 | 4531 ft | 257 kts | 356° |
| 2026-02-17 12:45 | 53.57131 | 9.68335 | 4141 ft | 256 kts | 356° |
| 2026-02-17 12:45 | 53.58902 | 9.68307 | 3767 ft | 254 kts | 356° |
| 2026-02-17 12:45 | 53.60663 | 9.68280 | 3393 ft | 252 kts | 356° |
| 2026-02-17 12:45 | 53.61644 | 9.68261 | 3183 ft | 251 kts | 356° |
| 2026-02-17 12:46 | 53.63376 | 9.68230 | 2997 ft | 248 kts | 356° |
| 2026-02-17 12:46 | 53.65106 | 9.68202 | 2998 ft | 250 kts | 356° |
| 2026-02-17 12:46 | 53.66849 | 9.68171 | 3001 ft | 250 kts | 356° |
| 2026-02-17 12:47 | 53.70333 | 9.68105 | 3002 ft | 250 kts | 356° |
| 2026-02-17 12:47 | 53.72100 | 9.68072 | 3002 ft | 250 kts | 356° |
| 2026-02-17 12:47 | 53.73843 | 9.68039 | 3000 ft | 251 kts | 356° |
| 2026-02-17 12:47 | 53.75583 | 9.68003 | 3000 ft | 250 kts | 356° |
| 2026-02-17 12:48 | 53.77323 | 9.67982 | 2994 ft | 247 kts | 359° |
| 2026-02-17 12:48 | 53.78919 | 9.68730 | 3000 ft | 235 kts | 27° |
| 2026-02-17 12:48 | 53.80228 | 9.70255 | 2998 ft | 224 kts | 33° |
| 2026-02-17 12:48 | 53.81462 | 9.71855 | 3000 ft | 224 kts | 34° |
| 2026-02-17 12:49 | 53.82656 | 9.73560 | 2981 ft | 226 kts | 48° |
| 2026-02-17 12:49 | 53.83286 | 9.75966 | 2999 ft | 224 kts | 83° |
| 2026-02-17 12:49 | 53.83031 | 9.78468 | 3002 ft | 215 kts | 116° |
| 2026-02-17 12:49 | 53.82296 | 9.80643 | 3000 ft | 212 kts | 123° |
| 2026-02-17 12:50 | 53.81495 | 9.82725 | 2995 ft | 210 kts | 125° |
| 2026-02-17 12:50 | 53.80474 | 9.84445 | 3002 ft | 208 kts | 152° |
| 2026-02-17 12:50 | 53.79195 | 9.85576 | 3001 ft | 207 kts | 155° |
| 2026-02-17 12:51 | 53.76629 | 9.87804 | 2685 ft | 204 kts | 155° |
| 2026-02-17 12:51 | 53.75384 | 9.88888 | 2405 ft | 199 kts | 155° |
| 2026-02-17 12:51 | 53.74163 | 9.89950 | 2126 ft | 195 kts | 155° |
| 2026-02-17 12:51 | 53.73005 | 9.90959 | 1875 ft | 177 kts | 155° |
| 2026-02-17 12:52 | 53.71964 | 9.91865 | 1624 ft | 160 kts | 155° |
| 2026-02-17 12:52 | 53.71009 | 9.92694 | 1404 ft | 150 kts | 155° |
| 2026-02-17 12:52 | 53.70097 | 9.93485 | 1184 ft | 146 kts | 155° |
| 2026-02-17 12:52 | 53.69201 | 9.94261 | 974 ft | 143 kts | 154° |
| 2026-02-17 12:53 | 53.68332 | 9.95015 | 759 ft | 138 kts | 153° |
| 2026-02-17 12:53 | 53.67479 | 9.95752 | 570 ft | 134 kts | 153° |
| 2026-02-17 12:53 | 53.66661 | 9.96454 | 372 ft | 135 kts | 152° |
| 2026-02-17 12:53 | 53.65822 | 9.97191 | 199 ft | 136 kts | 151° |
| 2026-02-17 12:54 | 53.65018 | 9.97887 | 58 ft | 118 kts | 152° |
| 2026-02-17 12:54 | 53.64429 | 9.98399 | 49 ft | 77 kts | 153° |
| 2026-02-17 12:54 | 53.64004 | 9.98768 | 48 ft | 62 kts | 153° |
| 2026-02-17 12:55 | 53.63409 | 9.99281 | 47 ft | 25 kts | 152° |
| 2026-02-17 12:55 | 53.63302 | 9.99471 | 47 ft | 14 kts | 113° |
| 2026-02-17 12:55 | 53.63288 | 9.99553 | 47 ft | 6 kts | 103° |
| 2026-02-17 12:55 | 53.63282 | 9.99607 | 48 ft | 4 kts | 100° |
| 2026-02-17 12:56 | 53.63274 | 9.99719 | 48 ft | 13 kts | 85° |
| 2026-02-17 12:56 | 53.63320 | 9.99846 | 48 ft | 13 kts | 49° |
| 2026-02-17 12:56 | 53.63377 | 9.99959 | 48 ft | 12 kts | 50° |
| 2026-02-17 12:56 | 53.63427 | 10.00069 | 48 ft | 11 kts | 68° |
| 2026-02-17 12:57 | 53.63401 | 10.00190 | 48 ft | 12 kts | 126° |
| 2026-02-17 12:57 | 53.63320 | 10.00234 | 48 ft | 12 kts | 175° |
| 2026-02-17 12:57 | 53.63291 | 10.00286 | 48 ft | 6 kts | 103° |
| 2026-02-17 12:57 | 53.63292 | 10.00346 | 48 ft | 5 kts | 87° |
| 2026-02-17 12:58 | 53.63292 | 10.00362 | 48 ft | 1 kts | 87° |
| 2026-02-17 12:58 | 53.63292 | 10.00363 | 48 ft | 0 kts | 87° |